Time;durP1;ratioP1;P1;durP2;ratioP2;P2;SDS_P1;SDS_P2;PMS_P1;PMS_P2;Temp;Humidity;BMP_temperature;BMP_pressure;BME280_temperature;BME280_humidity;BME280_pressure;Samples;Min_cycle;Max_cycle;Signal;HPM_P1;HPM_P2
2024/03/28 00:00:47;;;;;;;4.60;2.40;;;9.20;80.70;;;;;;5060063;28;20119;-80
2024/03/28 00:03:13;;;;;;;3.80;2.25;;;9.10;80.90;;;;;;5058500;28;20021;-77
2024/03/28 00:05:39;;;;;;;5.30;2.55;;;9.10;81.00;;;;;;5062329;28;20037;-78
2024/03/28 00:08:05;;;;;;;4.22;2.47;;;9.10;81.00;;;;;;5059849;28;20100;-76
2024/03/28 00:10:30;;;;;;;4.20;2.60;;;9.10;81.10;;;;;;5059799;28;20052;-81
2024/03/28 00:12:56;;;;;;;4.85;2.65;;;9.10;81.00;;;;;;5057235;28;20040;-76
2024/03/28 00:15:22;;;;;;;5.03;2.78;;;9.10;81.10;;;;;;5044090;28;20029;-76
2024/03/28 00:17:48;;;;;;;4.35;2.20;;;9.10;81.10;;;;;;5052832;28;20060;-79
2024/03/28 00:20:13;;;;;;;3.58;2.40;;;9.10;81.20;;;;;;5035179;28;20060;-76
2024/03/28 00:22:39;;;;;;;4.43;2.53;;;9.10;81.20;;;;;;5061580;28;20035;-78
2024/03/28 00:25:05;;;;;;;4.88;2.53;;;9.10;81.30;;;;;;5060320;28;20090;-78
2024/03/28 00:27:31;;;;;;;5.03;2.88;;;9.10;81.40;;;;;;5060511;28;20045;-76
2024/03/28 00:29:57;;;;;;;4.63;2.58;;;9.10;81.50;;;;;;5064059;28;20036;-80
2024/03/28 00:32:22;;;;;;;3.58;2.58;;;9.10;81.50;;;;;;5061139;28;20039;-76
2024/03/28 00:34:49;;;;;;;4.63;2.72;;;9.10;81.50;;;;;;5048377;28;20433;-76
2024/03/28 00:37:14;;;;;;;4.55;2.78;;;9.10;81.70;;;;;;5060796;28;20422;-83
2024/03/28 00:39:40;;;;;;;4.50;2.97;;;9.10;81.90;;;;;;5058296;28;20056;-77
2024/03/28 00:42:06;;;;;;;4.65;2.97;;;9.10;82.10;;;;;;5043870;28;20039;-75
2024/03/28 00:44:31;;;;;;;4.15;2.78;;;9.00;82.40;;;;;;5064810;28;20044;-79
2024/03/28 00:46:57;;;;;;;6.55;3.10;;;9.00;82.40;;;;;;5051922;28;20749;-75
2024/03/28 00:49:23;;;;;;;4.60;2.92;;;9.00;82.50;;;;;;5042678;28;20051;-79
2024/03/28 00:51:48;;;;;;;6.75;3.05;;;9.00;82.70;;;;;;5057831;28;20107;-76
2024/03/28 00:54:14;;;;;;;5.18;2.97;;;9.00;82.80;;;;;;5038102;28;20025;-78
2024/03/28 00:56:39;;;;;;;5.63;3.35;;;9.00;82.90;;;;;;5037027;28;20523;-81
2024/03/28 00:59:05;;;;;;;6.03;3.47;;;8.90;83.10;;;;;;5044109;28;20044;-76
2024/03/28 01:01:31;;;;;;;6.30;3.50;;;8.90;83.10;;;;;;5044810;28;20466;-76
2024/03/28 01:03:56;;;;;;;6.45;3.42;;;8.90;83.30;;;;;;5055751;28;20043;-77
2024/03/28 01:06:22;;;;;;;5.68;3.00;;;8.80;83.50;;;;;;5064986;28;20028;-75
2024/03/28 01:08:47;;;;;;;5.28;3.45;;;8.80;83.60;;;;;;5051792;28;20040;-80
2024/03/28 01:11:13;;;;;;;6.32;3.30;;;8.80;83.80;;;;;;5058513;28;20132;-76
2024/03/28 01:13:40;;;;;;;6.13;3.38;;;8.80;83.90;;;;;;5057016;28;20587;-76
2024/03/28 01:16:06;;;;;;;6.13;3.63;;;8.80;83.70;;;;;;5057554;28;20032;-74
2024/03/28 01:18:32;;;;;;;5.72;3.75;;;8.80;83.80;;;;;;5061771;28;20099;-74
2024/03/28 01:21:03;;;;;;;5.65;3.65;;;8.70;83.90;;;;;;5047560;28;20903;-79
2024/03/28 01:23:30;;;;;;;6.43;3.83;;;8.70;84.10;;;;;;5066813;28;20107;-76
2024/03/28 01:25:56;;;;;;;5.90;3.53;;;8.60;84.10;;;;;;5059592;28;20032;-74
2024/03/28 01:28:22;;;;;;;6.07;3.95;;;8.60;84.20;;;;;;5046774;28;20166;-74
2024/03/28 01:30:47;;;;;;;5.63;3.55;;;8.60;84.50;;;;;;5054955;28;20109;-79
2024/03/28 01:33:13;;;;;;;5.95;4.15;;;8.50;84.70;;;;;;5063923;28;20028;-76
2024/03/28 01:35:39;;;;;;;5.80;3.63;;;8.50;84.90;;;;;;5058448;28;20119;-78
2024/03/28 01:38:04;;;;;;;7.45;3.97;;;8.40;85.10;;;;;;5067918;28;20020;-77
2024/03/28 01:40:30;;;;;;;7.07;4.45;;;8.50;85.20;;;;;;5058156;28;20052;-75
2024/03/28 01:43:04;;;;;;;5.85;3.88;;;8.40;85.20;;;;;;5053719;28;20025;-79
2024/03/28 01:45:30;;;;;;;6.53;3.83;;;8.40;85.50;;;;;;5047738;28;20056;-75
2024/03/28 01:47:56;;;;;;;6.72;3.88;;;8.40;85.70;;;;;;5051583;28;20025;-74
2024/03/28 01:50:22;;;;;;;6.00;4.13;;;8.30;85.80;;;;;;5069332;28;20028;-76
2024/03/28 01:52:48;;;;;;;7.50;4.32;;;8.30;85.90;;;;;;5057019;28;20496;-82
2024/03/28 01:55:14;;;;;;;7.43;4.50;;;8.30;86.00;;;;;;5050871;28;20041;-78
2024/03/28 01:57:40;;;;;;;7.18;4.43;;;8.30;86.10;;;;;;5034911;28;20619;-79
2024/03/28 02:00:07;;;;;;;7.68;4.93;;;8.20;86.00;;;;;;5058663;28;20048;-80
2024/03/28 02:02:34;;;;;;;8.05;4.93;;;8.20;86.40;;;;;;5071738;28;20032;-82
2024/03/28 02:05:00;;;;;;;9.55;4.82;;;8.20;86.30;;;;;;5064074;28;20040;-79
2024/03/28 02:07:25;;;;;;;8.32;4.78;;;8.20;86.30;;;;;;5065318;28;20032;-77
2024/03/28 02:09:51;;;;;;;7.82;4.78;;;8.10;86.40;;;;;;5069637;28;20060;-80
2024/03/28 02:12:17;;;;;;;8.57;5.20;;;8.10;86.40;;;;;;5083875;28;20391;-77
2024/03/28 02:14:42;;;;;;;8.38;5.38;;;8.10;86.50;;;;;;5078028;28;20063;-76
2024/03/28 02:17:08;;;;;;;11.15;5.82;;;8.10;86.60;;;;;;5077798;28;20028;-81
2024/03/28 02:19:36;;;;;;;7.75;4.72;;;8.10;86.70;;;;;;5081953;28;20067;-76
2024/03/28 02:22:02;;;;;;;8.80;5.65;;;8.10;86.70;;;;;;5076763;28;20025;-76
2024/03/28 02:24:29;;;;;;;7.50;5.30;;;8.10;86.80;;;;;;5078772;28;20045;-84
2024/03/28 02:26:55;;;;;;;8.98;5.20;;;8.10;86.80;;;;;;5069073;28;20043;-84
2024/03/28 02:29:20;;;;;;;7.57;4.88;;;8.00;86.90;;;;;;5072248;28;20032;-83
2024/03/28 02:31:46;;;;;;;6.10;4.55;;;8.00;87.10;;;;;;5076259;28;20029;-83
2024/03/28 02:34:11;;;;;;;7.72;4.97;;;7.90;87.10;;;;;;5089848;28;20024;-81
2024/03/28 02:36:37;;;;;;;8.38;4.95;;;8.00;87.20;;;;;;5081880;28;20174;-81
2024/03/28 02:39:03;;;;;;;8.57;5.13;;;7.90;87.30;;;;;;5070398;28;20036;-78
2024/03/28 02:41:28;;;;;;;7.10;4.90;;;7.90;87.30;;;;;;5083250;28;20045;-82
2024/03/28 02:43:54;;;;;;;8.90;5.63;;;7.90;87.20;;;;;;5077296;28;20027;-80
2024/03/28 02:46:20;;;;;;;7.20;5.13;;;7.90;87.30;;;;;;5055754;28;20033;-77
2024/03/28 02:48:45;;;;;;;6.97;4.60;;;7.90;87.30;;;;;;5079008;28;20020;-78
2024/03/28 02:51:11;;;;;;;6.78;4.47;;;8.00;87.30;;;;;;5069815;28;20021;-78
2024/03/28 02:53:36;;;;;;;9.02;4.55;;;8.00;87.20;;;;;;5070954;28;20013;-82
2024/03/28 02:56:02;;;;;;;7.22;4.63;;;8.00;87.00;;;;;;5063718;28;20029;-81
2024/03/28 02:58:28;;;;;;;8.32;5.00;;;8.10;87.10;;;;;;5049546;28;20036;-83
2024/03/28 03:00:53;;;;;;;6.93;4.50;;;8.10;87.00;;;;;;5062265;28;20075;-78
2024/03/28 03:03:19;;;;;;;7.93;4.07;;;8.10;86.90;;;;;;5074559;28;20116;-76
2024/03/28 03:05:48;;;;;;;7.90;4.10;;;8.10;86.70;;;;;;5071819;28;20027;-84
2024/03/28 03:08:14;;;;;;;6.93;4.35;;;8.10;86.60;;;;;;5072561;28;20060;-78
2024/03/28 03:10:40;;;;;;;7.88;4.78;;;8.20;86.70;;;;;;5069267;28;20036;-74
2024/03/28 03:13:05;;;;;;;7.22;4.75;;;8.10;86.60;;;;;;5071725;28;20690;-78
2024/03/28 03:15:31;;;;;;;9.60;4.78;;;8.10;86.70;;;;;;5063110;28;20065;-82
2024/03/28 03:17:57;;;;;;;7.38;4.50;;;8.20;86.40;;;;;;5057116;28;20055;-77
2024/03/28 03:20:24;;;;;;;6.22;4.32;;;8.10;86.40;;;;;;5057763;28;20040;-74
2024/03/28 03:22:52;;;;;;;8.07;4.28;;;8.10;86.30;;;;;;5055306;28;20068;-78
2024/03/28 03:25:26;;;;;;;6.70;3.97;;;8.20;86.20;;;;;;5059086;28;20044;-75
2024/03/28 03:36:22;;;;;;;7.15;4.13;;;8.30;85.20;;;;;;5058257;28;20599;-75
2024/03/28 03:38:48;;;;;;;6.28;3.97;;;8.40;85.00;;;;;;5063696;28;20029;-77
2024/03/28 03:41:13;;;;;;;7.28;4.05;;;8.40;85.00;;;;;;5037016;28;20041;-78
2024/03/28 03:43:39;;;;;;;10.23;4.32;;;8.40;84.60;;;;;;5058159;28;20075;-77
2024/03/28 03:46:04;;;;;;;8.40;4.07;;;8.40;84.50;;;;;;5048508;28;20471;-79
2024/03/28 03:48:30;;;;;;;7.53;4.03;;;8.50;84.30;;;;;;5056849;28;20027;-75
2024/03/28 03:50:56;;;;;;;6.93;3.92;;;8.50;84.00;;;;;;5044291;28;20021;-77
2024/03/28 03:53:22;;;;;;;5.85;3.58;;;8.70;83.40;;;;;;5056051;28;20086;-76
2024/03/28 03:55:56;;;;;;;6.95;3.65;;;8.70;83.10;;;;;;5057418;28;20443;-79
2024/03/28 03:58:21;;;;;;;7.05;3.90;;;8.80;83.00;;;;;;5063866;28;20839;-75
2024/03/28 04:00:47;;;;;;;8.05;3.70;;;8.90;82.80;;;;;;5060039;28;20123;-76
2024/03/28 04:03:13;;;;;;;6.90;3.83;;;8.90;82.70;;;;;;5063474;28;20154;-76
2024/03/28 04:05:39;;;;;;;5.82;3.28;;;8.90;82.70;;;;;;5053661;28;20105;-78
2024/03/28 04:08:06;;;;;;;5.05;3.53;;;8.90;82.50;;;;;;5053568;28;20445;-81
2024/03/28 04:10:31;;;;;;;5.53;3.00;;;9.00;82.60;;;;;;5056102;28;20032;-75
2024/03/28 04:12:57;;;;;;;5.68;3.35;;;8.90;82.50;;;;;;5045329;28;20094;-77
2024/03/28 04:15:23;;;;;;;5.90;3.20;;;9.00;82.50;;;;;;5053212;28;20076;-79
2024/03/28 04:17:48;;;;;;;6.15;3.00;;;9.00;82.50;;;;;;5041634;28;20040;-75
2024/03/28 04:20:14;;;;;;;4.55;3.00;;;9.10;82.60;;;;;;5056079;28;20033;-76
2024/03/28 04:22:39;;;;;;;5.90;3.03;;;9.10;82.60;;;;;;5052413;28;20032;-77
2024/03/28 04:25:05;;;;;;;6.25;3.20;;;9.10;83.60;;;;;;5055199;28;20044;-78
2024/03/28 04:27:31;;;;;;;7.32;3.78;;;9.00;84.40;;;;;;5058599;28;20375;-79
2024/03/28 04:29:56;;;;;;;5.30;3.70;;;8.90;85.60;;;;;;5050373;28;20418;-74
2024/03/28 04:32:22;;;;;;;6.57;3.33;;;8.90;86.30;;;;;;5052728;28;20021;-75
2024/03/28 04:34:48;;;;;;;7.72;3.00;;;8.70;87.10;;;;;;5054201;28;20028;-77
2024/03/28 04:37:14;;;;;;;6.90;2.88;;;8.60;87.90;;;;;;5055679;28;20128;-78
2024/03/28 04:39:40;;;;;;;4.43;2.65;;;8.30;88.60;;;;;;5056517;28;20574;-76
2024/03/28 04:42:06;;;;;;;4.15;2.40;;;8.10;88.90;;;;;;5055789;28;20039;-75
2024/03/28 04:44:32;;;;;;;4.10;2.15;;;8.10;89.40;;;;;;5049639;28;20048;-75
2024/03/28 04:46:58;;;;;;;5.07;2.40;;;8.10;89.60;;;;;;5060641;28;20028;-78
2024/03/28 04:49:24;;;;;;;4.88;2.55;;;7.90;89.90;;;;;;5056004;28;20047;-76
2024/03/28 04:51:49;;;;;;;4.15;2.80;;;7.90;90.10;;;;;;5038999;28;20081;-76
2024/03/28 04:54:16;;;;;;;5.78;2.40;;;7.90;90.40;;;;;;5051123;28;20024;-80
2024/03/28 04:56:41;;;;;;;5.45;2.53;;;7.90;90.60;;;;;;5031261;28;20111;-75
2024/03/28 04:59:08;;;;;;;5.93;3.10;;;7.90;91.00;;;;;;5035471;28;20165;-76
2024/03/28 05:01:35;;;;;;;6.28;2.55;;;7.90;91.30;;;;;;5056942;28;20089;-75
2024/03/28 05:04:01;;;;;;;6.22;2.80;;;7.90;91.60;;;;;;5053600;28;20120;-76
2024/03/28 05:06:26;;;;;;;5.50;2.63;;;7.90;91.90;;;;;;5051734;28;20037;-77
2024/03/28 05:08:53;;;;;;;5.18;2.95;;;7.90;92.10;;;;;;5052277;28;20019;-77
2024/03/28 05:11:19;;;;;;;6.38;3.75;;;7.90;92.10;;;;;;5052436;28;20091;-77
2024/03/28 05:13:45;;;;;;;7.20;3.58;;;7.90;92.20;;;;;;5050405;28;20020;-78
2024/03/28 05:16:14;;;;;;;7.45;3.90;;;7.90;92.40;;;;;;5051040;28;20047;-79
2024/03/28 05:18:42;;;;;;;7.47;3.85;;;7.90;92.60;;;;;;5051693;28;20079;-78
2024/03/28 05:21:07;;;;;;;8.70;4.28;;;7.90;92.70;;;;;;5054100;28;20086;-77
2024/03/28 05:23:33;;;;;;;8.05;3.97;;;7.90;92.80;;;;;;5059035;28;20044;-75
2024/03/28 05:25:58;;;;;;;6.85;4.10;;;7.90;93.00;;;;;;5031189;28;20033;-77
2024/03/28 05:28:24;;;;;;;9.30;3.88;;;7.90;93.10;;;;;;5047131;28;20248;-78
2024/03/28 05:30:52;;;;;;;8.90;4.55;;;7.90;93.10;;;;;;5051790;28;20127;-76
2024/03/28 05:33:17;;;;;;;7.97;4.50;;;7.90;93.20;;;;;;5051893;28;20021;-75
2024/03/28 05:35:44;;;;;;;8.30;3.90;;;7.80;93.50;;;;;;5048413;28;20118;-79
2024/03/28 05:38:10;;;;;;;9.93;4.57;;;7.90;93.60;;;;;;5051928;28;20086;-77
2024/03/28 05:40:36;;;;;;;9.35;4.60;;;7.80;93.60;;;;;;5046659;28;20072;-78
2024/03/28 05:43:01;;;;;;;9.05;4.78;;;7.90;93.70;;;;;;5048154;28;20067;-76
2024/03/28 05:45:27;;;;;;;10.38;5.10;;;7.90;93.80;;;;;;5046834;28;20060;-78
2024/03/28 05:47:53;;;;;;;9.52;5.28;;;7.90;93.80;;;;;;5052200;28;20077;-77
2024/03/28 05:50:18;;;;;;;9.80;5.15;;;7.90;93.90;;;;;;5049955;28;20102;-76
2024/03/28 05:52:44;;;;;;;9.15;5.20;;;8.00;94.00;;;;;;5050332;28;20468;-78
2024/03/28 05:55:09;;;;;;;9.40;4.75;;;8.00;94.10;;;;;;5056071;28;20043;-77
2024/03/28 05:57:35;;;;;;;9.45;4.93;;;8.00;94.10;;;;;;5064974;28;20064;-78
2024/03/28 06:00:01;;;;;;;10.20;5.50;;;7.90;94.00;;;;;;5067726;28;20046;-79
2024/03/28 06:02:26;;;;;;;9.05;5.18;;;8.00;94.10;;;;;;5076838;28;20032;-75
2024/03/28 06:04:52;;;;;;;9.32;5.10;;;8.00;94.10;;;;;;5072505;28;20228;-74
2024/03/28 06:07:17;;;;;;;9.18;5.40;;;8.10;94.00;;;;;;5070445;28;20742;-80
2024/03/28 06:09:44;;;;;;;9.70;5.60;;;8.10;94.00;;;;;;5067237;28;20043;-75
2024/03/28 06:12:09;;;;;;;10.15;5.78;;;8.10;94.00;;;;;;5070773;28;20026;-76
2024/03/28 06:14:38;;;;;;;10.13;6.28;;;8.10;94.00;;;;;;5050080;28;20040;-76
2024/03/28 06:17:04;;;;;;;10.25;5.88;;;8.20;94.00;;;;;;5070629;28;20036;-76
2024/03/28 06:19:30;;;;;;;11.13;6.15;;;8.20;93.80;;;;;;5067628;28;20467;-75
2024/03/28 06:21:55;;;;;;;12.95;6.38;;;8.20;93.80;;;;;;5070366;28;20036;-78
2024/03/28 06:24:21;;;;;;;10.82;5.90;;;8.30;93.80;;;;;;5072082;28;20067;-75
2024/03/28 06:26:49;;;;;;;9.48;5.68;;;8.30;93.90;;;;;;5072954;28;20057;-76
2024/03/28 06:29:15;;;;;;;10.05;6.05;;;8.30;93.90;;;;;;5073105;28;20028;-75
2024/03/28 06:31:40;;;;;;;8.02;4.80;;;8.30;94.00;;;;;;5071354;28;20051;-79
2024/03/28 06:34:06;;;;;;;9.15;5.43;;;8.30;94.10;;;;;;5075713;28;20023;-76
2024/03/28 06:36:32;;;;;;;11.55;6.10;;;8.30;94.10;;;;;;5068844;28;20082;-78
2024/03/28 06:38:57;;;;;;;8.52;4.32;;;8.30;94.10;;;;;;5072897;28;20016;-78
2024/03/28 06:41:23;;;;;;;7.53;4.00;;;8.40;94.10;;;;;;5051550;28;20515;-76
2024/03/28 06:43:49;;;;;;;8.85;4.38;;;8.40;94.10;;;;;;5073850;28;20035;-75
2024/03/28 06:46:15;;;;;;;6.95;4.05;;;8.40;94.20;;;;;;5071510;28;20040;-77
2024/03/28 06:48:42;;;;;;;8.98;4.32;;;8.40;94.20;;;;;;5077845;28;20127;-81
2024/03/28 06:51:08;;;;;;;6.18;3.90;;;8.50;94.20;;;;;;5075006;28;20181;-81
2024/03/28 06:53:33;;;;;;;6.60;3.65;;;8.50;94.10;;;;;;5076299;28;20447;-79
2024/03/28 06:55:59;;;;;;;5.80;3.60;;;8.50;94.10;;;;;;5076053;28;20066;-80
2024/03/28 06:58:25;;;;;;;6.45;3.58;;;8.50;94.10;;;;;;5070008;28;20125;-81
2024/03/28 07:01:00;;;;;;;7.47;3.30;;;8.50;94.10;;;;;;5067818;28;20036;-81
2024/03/28 07:03:26;;;;;;;5.72;3.20;;;8.50;93.90;;;;;;5081162;28;20007;-80
2024/03/28 07:05:51;;;;;;;5.93;3.65;;;8.50;93.90;;;;;;5072431;28;20883;-79
2024/03/28 07:08:17;;;;;;;6.90;4.00;;;8.50;93.70;;;;;;5072628;28;20024;-80
2024/03/28 07:10:42;;;;;;;7.18;3.50;;;8.50;93.70;;;;;;5080120;28;20028;-79
2024/03/28 07:13:08;;;;;;;7.00;3.72;;;8.50;93.80;;;;;;5080879;28;20031;-81
2024/03/28 07:15:34;;;;;;;7.45;3.33;;;8.60;93.80;;;;;;5070720;28;20040;-78
2024/03/28 07:17:59;;;;;;;6.32;4.15;;;8.60;93.40;;;;;;5074582;28;20167;-80
2024/03/28 07:20:25;;;;;;;9.30;4.32;;;8.60;93.10;;;;;;5075902;28;20028;-79
2024/03/28 07:22:51;;;;;;;8.48;4.18;;;8.70;93.10;;;;;;5077980;28;20388;-80
2024/03/28 07:25:17;;;;;;;6.88;4.10;;;8.70;92.90;;;;;;5069860;28;20048;-79
2024/03/28 07:27:43;;;;;;;6.57;3.70;;;8.90;92.60;;;;;;5079331;28;20112;-79
2024/03/28 07:30:10;;;;;;;9.10;3.70;;;8.90;91.90;;;;;;5072421;28;20106;-80
2024/03/28 07:32:36;;;;;;;6.30;3.50;;;9.00;91.30;;;;;;5065182;28;20468;-81
2024/03/28 07:35:01;;;;;;;8.38;3.45;;;9.10;90.90;;;;;;5059176;28;20039;-81
2024/03/28 07:37:27;;;;;;;9.25;3.15;;;9.20;90.40;;;;;;5070887;28;20365;-80
2024/03/28 07:39:53;;;;;;;6.38;3.10;;;9.20;89.70;;;;;;5069840;28;20028;-79
2024/03/28 07:42:19;;;;;;;8.00;3.30;;;9.30;89.60;;;;;;5069281;28;20226;-80
2024/03/28 07:44:45;;;;;;;8.30;3.63;;;9.30;89.40;;;;;;5075467;28;20035;-80
2024/03/28 07:47:11;;;;;;;10.25;3.17;;;9.30;89.20;;;;;;5065848;28;20032;-78
2024/03/28 07:49:36;;;;;;;6.80;2.83;;;9.10;88.60;;;;;;5060409;28;20183;-80
2024/03/28 07:52:02;;;;;;;9.80;3.58;;;9.10;88.40;;;;;;5070509;28;20381;-79
2024/03/28 07:54:28;;;;;;;7.68;2.83;;;9.10;88.10;;;;;;5074794;28;20048;-82
2024/03/28 07:56:53;;;;;;;6.55;2.30;;;9.10;87.30;;;;;;5076706;28;20391;-82
2024/03/28 07:59:20;;;;;;;5.80;2.05;;;9.10;87.60;;;;;;5071966;28;20595;-81
2024/03/28 08:01:46;;;;;;;8.10;2.72;;;9.10;87.30;;;;;;5073424;28;20673;-82
2024/03/28 08:04:12;;;;;;;8.95;2.00;;;9.10;86.90;;;;;;5080239;28;20407;-81
2024/03/28 08:06:39;;;;;;;8.15;2.13;;;9.20;86.60;;;;;;5078927;28;20047;-80
2024/03/28 08:09:05;;;;;;;8.30;2.20;;;9.30;87.10;;;;;;5071300;28;20062;-80
2024/03/28 08:11:31;;;;;;;7.93;1.80;;;9.30;86.70;;;;;;5067366;28;20055;-79
2024/03/28 08:13:56;;;;;;;6.57;1.88;;;9.30;86.30;;;;;;5068353;28;20029;-82
2024/03/28 08:16:22;;;;;;;7.65;1.80;;;9.20;85.80;;;;;;5071512;28;20461;-81
2024/03/28 08:18:48;;;;;;;9.40;1.92;;;9.10;85.60;;;;;;5071441;28;20365;-79
2024/03/28 08:21:15;;;;;;;9.02;1.90;;;9.30;85.70;;;;;;5075371;28;20090;-81
2024/03/28 08:23:42;;;;;;;9.07;2.75;;;9.40;85.90;;;;;;5076781;28;20039;-79
2024/03/28 08:26:09;;;;;;;6.13;1.90;;;9.40;84.70;;;;;;5077726;28;20078;-78
2024/03/28 08:28:34;;;;;;;10.48;2.25;;;9.40;84.30;;;;;;5079489;28;20452;-78
2024/03/28 08:31:00;;;;;;;6.50;1.88;;;9.50;83.30;;;;;;5063253;28;20032;-78
2024/03/28 08:33:27;;;;;;;8.98;1.80;;;9.70;83.60;;;;;;5070783;28;20020;-76
2024/03/28 08:35:53;;;;;;;5.95;2.03;;;9.80;81.90;;;;;;5062284;28;20039;-80
2024/03/28 08:38:18;;;;;;;7.20;1.98;;;9.80;81.00;;;;;;5077509;28;20024;-78
2024/03/28 08:40:44;;;;;;;7.47;1.90;;;10.10;81.20;;;;;;5073264;28;20979;-78
2024/03/28 08:43:10;;;;;;;9.50;2.20;;;10.20;80.60;;;;;;5076562;28;20020;-82
2024/03/28 08:45:35;;;;;;;6.72;1.70;;;10.40;79.60;;;;;;5041904;28;20457;-80
2024/03/28 08:48:02;;;;;;;5.30;2.20;;;10.40;78.40;;;;;;5084395;28;20811;-78
2024/03/28 08:50:27;;;;;;;8.13;1.80;;;10.60;78.10;;;;;;5063835;28;20032;-76
2024/03/28 08:52:54;;;;;;;5.22;1.70;;;10.90;78.10;;;;;;5071808;28;20518;-75
2024/03/28 08:55:21;;;;;;;8.32;2.10;;;11.40;77.20;;;;;;5071625;28;20063;-78
2024/03/28 08:57:48;;;;;;;6.22;1.90;;;11.70;75.90;;;;;;5074541;28;20047;-80
2024/03/28 09:00:15;;;;;;;9.27;1.95;;;11.80;72.40;;;;;;5068111;28;20202;-79
2024/03/28 09:02:41;;;;;;;5.72;1.90;;;12.00;72.90;;;;;;5075072;28;20061;-77
2024/03/28 09:05:09;;;;;;;6.32;1.95;;;12.10;73.10;;;;;;5079900;28;20036;-80
2024/03/28 09:07:35;;;;;;;2.65;1.40;;;12.20;73.00;;;;;;5075461;28;20031;-77
2024/03/28 09:10:04;;;;;;;3.45;1.65;;;11.80;70.30;;;;;;5075824;28;20239;-79
2024/03/28 09:12:37;;;;;;;3.72;1.52;;;11.50;71.30;;;;;;5072008;28;20051;-78
2024/03/28 09:15:06;;;;;;;5.80;1.60;;;11.40;72.80;;;;;;5071061;28;20032;-79
2024/03/28 09:17:32;;;;;;;4.45;1.90;;;11.60;71.70;;;;;;5073196;28;20060;-79
2024/03/28 09:19:57;;;;;;;5.80;1.65;;;11.40;72.20;;;;;;5055704;28;20031;-79
2024/03/28 09:22:24;;;;;;;5.63;1.60;;;11.80;72.90;;;;;;5072436;28;20036;-81
2024/03/28 09:24:50;;;;;;;4.53;1.73;;;12.00;71.10;;;;;;5074476;28;20056;-78
2024/03/28 09:27:16;;;;;;;3.28;1.38;;;12.00;70.80;;;;;;5069378;28;20371;-76
2024/03/28 09:29:42;;;;;;;3.15;1.52;;;12.10;70.20;;;;;;5072517;28;20081;-78
2024/03/28 09:32:08;;;;;;;3.08;1.33;;;12.10;70.70;;;;;;5058242;28;20144;-78
2024/03/28 09:34:37;;;;;;;4.95;1.65;;;12.10;70.30;;;;;;5066987;28;20047;-79
2024/03/28 09:37:03;;;;;;;4.15;1.30;;;12.20;70.00;;;;;;5066538;28;20031;-76
2024/03/28 09:39:29;;;;;;;4.85;1.50;;;12.10;70.10;;;;;;5068152;28;20020;-79
2024/03/28 09:41:59;;;;;;;3.03;1.33;;;12.10;69.60;;;;;;5067531;28;20125;-81
2024/03/28 09:44:25;;;;;;;6.10;1.40;;;12.10;70.00;;;;;;5072806;28;20116;-79
2024/03/28 09:46:52;;;;;;;3.72;1.20;;;12.30;69.40;;;;;;5074686;28;20042;-77
2024/03/28 09:49:19;;;;;;;2.58;1.20;;;12.50;68.10;;;;;;5071650;28;20024;-78
2024/03/28 09:51:47;;;;;;;2.58;1.10;;;12.60;67.60;;;;;;5070705;28;20063;-77
2024/03/28 09:54:14;;;;;;;1.42;1.08;;;12.30;67.00;;;;;;5071450;28;20034;-80
2024/03/28 09:56:40;;;;;;;4.35;1.48;;;12.60;68.20;;;;;;5070462;28;20032;-79
2024/03/28 09:59:07;;;;;;;3.38;1.15;;;12.40;68.40;;;;;;5065940;28;20022;-78
2024/03/28 10:01:34;;;;;;;2.35;1.23;;;12.00;68.10;;;;;;5052607;28;20056;-79
2024/03/28 10:04:10;;;;;;;4.78;1.20;;;11.90;69.50;;;;;;5078697;28;20028;-77
2024/03/28 10:06:37;;;;;;;4.18;1.15;;;12.10;69.40;;;;;;5072450;28;20043;-77
2024/03/28 10:09:02;;;;;;;3.78;1.15;;;12.40;67.20;;;;;;5070926;28;20012;-78
2024/03/28 10:11:28;;;;;;;3.72;1.10;;;12.60;67.30;;;;;;5066600;28;20361;-80
2024/03/28 10:13:55;;;;;;;4.18;1.08;;;12.70;66.50;;;;;;5076104;28;20028;-78
2024/03/28 10:16:22;;;;;;;2.92;1.10;;;12.70;66.80;;;;;;5053637;28;21667;-76
2024/03/28 10:18:53;;;;;;;2.03;1.10;;;12.70;67.10;;;;;;5072608;28;20069;-77
2024/03/28 10:21:19;;;;;;;1.92;0.95;;;12.90;67.40;;;;;;5073047;28;20155;-78
2024/03/28 10:23:45;;;;;;;1.90;1.10;;;12.70;67.40;;;;;;5078146;28;20028;-76
2024/03/28 10:26:15;;;;;;;2.25;1.00;;;13.00;67.50;;;;;;5076762;28;20036;-78
2024/03/28 10:28:41;;;;;;;3.65;1.30;;;13.10;66.80;;;;;;5072700;28;20075;-77
2024/03/28 10:31:07;;;;;;;4.57;1.23;;;12.80;66.40;;;;;;5078449;28;20051;-76
2024/03/28 10:33:33;;;;;;;5.25;1.20;;;12.80;65.60;;;;;;5070615;28;20021;-78
2024/03/28 10:36:03;;;;;;;3.50;1.25;;;13.10;65.40;;;;;;5086737;28;21091;-75
2024/03/28 10:38:29;;;;;;;4.13;1.20;;;13.10;64.20;;;;;;5093534;28;20047;-78
2024/03/28 10:40:58;;;;;;;3.25;1.30;;;12.90;64.10;;;;;;5084232;28;20581;-77
2024/03/28 10:43:27;;;;;;;3.30;1.02;;;12.70;64.90;;;;;;5084909;28;20036;-77
2024/03/28 10:45:59;;;;;;;3.10;1.10;;;12.60;65.60;;;;;;5066138;28;20036;-78
2024/03/28 10:48:26;;;;;;;2.33;1.33;;;12.90;66.10;;;;;;5080897;28;20512;-76
2024/03/28 10:51:17;;;;;;;2.55;1.10;;;13.30;65.10;;;;;;5074900;28;20068;-79
2024/03/28 10:53:52;;;;;;;4.07;1.20;;;13.40;64.20;;;;;;5056592;28;20039;-76
2024/03/28 10:56:19;;;;;;;3.50;1.30;;;13.30;63.30;;;;;;5070283;28;20035;-76
2024/03/28 10:58:48;;;;;;;4.75;1.23;;;13.10;63.40;;;;;;5073130;28;20029;-77
2024/03/28 11:01:16;;;;;;;2.67;1.20;;;13.10;63.60;;;;;;5064822;28;20071;-78
2024/03/28 11:03:43;;;;;;;3.08;1.05;;;12.80;63.40;;;;;;5070970;28;20098;-77
2024/03/28 11:06:10;;;;;;;4.13;1.10;;;12.90;65.20;;;;;;5076157;28;20115;-79
2024/03/28 11:08:37;;;;;;;3.47;1.08;;;12.90;64.60;;;;;;5068970;28;20020;-78
2024/03/28 11:11:05;;;;;;;2.88;1.20;;;13.00;64.20;;;;;;5069859;28;20020;-78
2024/03/28 11:13:32;;;;;;;3.50;1.20;;;12.80;64.90;;;;;;5075069;28;20016;-79
2024/03/28 11:16:05;;;;;;;5.45;1.30;;;12.80;65.70;;;;;;5057123;28;20085;-79
2024/03/28 11:18:35;;;;;;;3.80;1.20;;;13.00;65.70;;;;;;5074926;28;20043;-78
2024/03/28 11:21:04;;;;;;;4.18;1.58;;;13.10;65.00;;;;;;5061732;28;20433;-78
2024/03/28 11:23:33;;;;;;;2.38;1.30;;;13.00;64.30;;;;;;5072813;28;20023;-77
2024/03/28 11:26:06;;;;;;;5.72;1.35;;;13.10;64.30;;;;;;5076285;28;20106;-77
2024/03/28 11:28:33;;;;;;;2.75;1.35;;;13.20;63.50;;;;;;5075996;28;20028;-78
2024/03/28 11:30:59;;;;;;;4.25;1.15;;;13.40;63.00;;;;;;5072227;28;20075;-76
2024/03/28 11:33:37;;;;;;;2.95;0.98;;;13.60;63.90;;;;;;5073141;28;20072;-78
2024/03/28 11:36:07;;;;;;;3.67;1.45;;;13.70;63.00;;;;;;5072595;28;20415;-77
2024/03/28 11:38:34;;;;;;;3.05;1.40;;;13.50;62.20;;;;;;5072068;28;20039;-78
2024/03/28 11:41:00;;;;;;;5.45;1.73;;;13.20;62.20;;;;;;5079507;28;20040;-77
2024/03/28 11:43:27;;;;;;;6.03;1.98;;;13.00;62.00;;;;;;5061483;28;20027;-76
2024/03/28 11:45:57;;;;;;;6.10;1.48;;;12.90;62.30;;;;;;5072576;28;20174;-77
2024/03/28 11:48:25;;;;;;;4.15;1.30;;;13.00;63.80;;;;;;5076289;28;20051;-77
2024/03/28 11:50:52;;;;;;;3.13;1.33;;;13.10;63.30;;;;;;5073682;28;20602;-77
2024/03/28 11:53:17;;;;;;;4.72;1.85;;;13.00;63.00;;;;;;5075814;28;20585;-76
2024/03/28 11:55:44;;;;;;;4.38;1.50;;;13.10;63.20;;;;;;5075114;28;20032;-75
2024/03/28 11:58:17;;;;;;;4.40;1.50;;;12.80;64.00;;;;;;5079559;28;20612;-77
2024/03/28 12:00:44;;;;;;;4.88;1.83;;;12.90;64.40;;;;;;5069918;28;20045;-78
2024/03/28 12:03:10;;;;;;;2.80;1.10;;;12.90;63.60;;;;;;5068933;28;20032;-79
2024/03/28 12:05:37;;;;;;;3.05;1.20;;;13.10;63.80;;;;;;5070038;28;20048;-78
2024/03/28 12:08:04;;;;;;;4.10;1.30;;;13.10;63.60;;;;;;5077395;28;20174;-78
2024/03/28 12:10:30;;;;;;;3.85;1.45;;;13.20;62.90;;;;;;5076814;28;20024;-78
2024/03/28 12:12:55;;;;;;;5.13;1.25;;;13.40;64.00;;;;;;5069183;28;20036;-79
2024/03/28 12:15:21;;;;;;;5.50;1.50;;;13.30;63.10;;;;;;5074726;28;20481;-78
2024/03/28 12:17:47;;;;;;;3.97;1.85;;;13.10;64.00;;;;;;5073538;28;20029;-78
2024/03/28 12:20:20;;;;;;;5.93;1.50;;;13.00;64.90;;;;;;5070891;28;20116;-79
2024/03/28 12:22:50;;;;;;;6.35;1.60;;;13.10;63.60;;;;;;5070536;28;20044;-78
2024/03/28 12:25:15;;;;;;;4.32;1.50;;;13.20;63.40;;;;;;5070791;28;20051;-81
2024/03/28 12:27:42;;;;;;;4.55;1.50;;;13.10;63.20;;;;;;5070076;28;20045;-77
2024/03/28 12:30:10;;;;;;;5.45;1.55;;;12.90;64.10;;;;;;5069676;28;20131;-78
2024/03/28 12:32:40;;;;;;;5.53;1.50;;;12.90;64.80;;;;;;5067758;28;20442;-77
2024/03/28 12:35:07;;;;;;;6.13;1.70;;;13.00;64.10;;;;;;5078574;28;20387;-78
2024/03/28 12:37:36;;;;;;;6.32;1.48;;;13.20;64.60;;;;;;5075461;28;20518;-81
2024/03/28 12:40:13;;;;;;;4.32;1.55;;;13.10;63.70;;;;;;5072189;28;20032;-79
2024/03/28 12:42:43;;;;;;;5.68;1.92;;;13.10;64.20;;;;;;5069879;28;20123;-79
2024/03/28 12:45:17;;;;;;;8.55;1.65;;;13.40;65.00;;;;;;5071714;28;20040;-80
2024/03/28 12:47:44;;;;;;;5.28;1.70;;;14.00;63.90;;;;;;5074918;28;20038;-79
2024/03/28 12:50:11;;;;;;;4.97;1.70;;;14.10;62.60;;;;;;5072354;28;20035;-80
2024/03/28 12:52:37;;;;;;;13.32;2.22;;;14.30;62.60;;;;;;5066660;28;20851;-79
2024/03/28 12:55:03;;;;;;;7.00;1.92;;;14.00;62.20;;;;;;5075507;28;20031;-79
2024/03/28 12:57:29;;;;;;;4.13;1.40;;;13.70;63.20;;;;;;5069230;28;20468;-81